createdAt,value
2019-04-26T07:25:57.408Z,57.90
2019-04-26T07:28:37.524Z,61.30
2019-04-26T07:31:23.493Z,63.20
2019-04-26T07:34:45.523Z,62.90
2019-04-26T07:37:38.297Z,61.00
2019-04-26T07:40:40.288Z,58.50
2019-04-26T07:43:46.324Z,58.80
2019-04-26T07:46:42.344Z,56.90
2019-04-26T07:49:37.801Z,55.30
2019-04-26T07:52:32.280Z,54.80
2019-04-26T07:55:26.196Z,54.00
2019-04-26T07:58:33.249Z,53.60
2019-04-26T08:01:43.545Z,53.80
2019-04-26T08:04:20.118Z,55.00
2019-04-26T08:07:06.270Z,54.40
2019-04-26T08:09:59.854Z,54.00
2019-04-26T08:12:35.705Z,53.20
2019-04-26T08:15:24.957Z,52.70
2019-04-26T08:17:56.791Z,52.10
2019-04-26T08:20:57.930Z,54.70
2019-04-26T08:23:43.278Z,52.90
2019-04-26T08:26:17.534Z,53.40
2019-04-26T08:29:00.644Z,53.60
2019-04-26T08:31:37.231Z,52.30
2019-04-26T08:34:12.338Z,51.90
2019-04-26T08:36:48.065Z,51.80
2019-04-26T08:39:44.263Z,51.40
2019-04-26T08:42:11.808Z,51.20
2019-04-26T08:45:04.704Z,51.20
2019-04-26T08:47:40.275Z,50.70
2019-04-26T08:50:22.192Z,51.40
2019-04-26T08:52:57.893Z,51.10
2019-04-26T08:55:34.183Z,52.30
2019-04-26T08:58:08.473Z,52.80
2019-04-26T09:00:43.398Z,52.40
2019-04-26T09:03:32.479Z,52.60
2019-04-26T09:06:24.932Z,52.70
2019-04-26T09:09:19.667Z,53.50
2019-04-26T09:11:59.912Z,54.10
2019-04-26T09:14:39.966Z,53.40
2019-04-26T09:17:13.564Z,54.50
2019-04-26T09:19:53.741Z,54.80
2019-04-26T09:22:35.107Z,53.80
2019-04-26T09:25:24.726Z,53.10
2019-04-26T09:27:59.560Z,53.70
2019-04-26T09:30:44.873Z,50.80
2019-04-26T09:33:31.680Z,51.20
2019-04-26T09:36:13.768Z,50.10
2019-04-26T09:38:47.394Z,50.50
2019-04-26T09:41:26.602Z,49.90
2019-04-26T09:44:07.311Z,50.80
2019-04-26T09:46:54.173Z,51.00
2019-04-26T09:49:49.673Z,52.00
2019-04-26T09:52:29.018Z,52.60
2019-04-26T09:55:12.392Z,52.40
2019-04-26T09:57:46.477Z,51.60
2019-04-26T10:00:20.119Z,50.60
2019-04-26T10:03:05.610Z,49.90
2019-04-26T10:05:40.671Z,50.50
2019-04-26T10:08:29.418Z,49.80
2019-04-26T10:11:05.666Z,49.40
2019-04-26T10:13:42.302Z,48.00
2019-04-26T10:16:16.287Z,48.90
2019-04-26T10:18:59.389Z,49.00
2019-04-26T10:21:34.244Z,48.30
2019-04-26T10:24:16.953Z,48.80
2019-04-26T10:26:52.042Z,48.80
2019-04-26T10:29:26.761Z,49.30
2019-04-26T10:31:57.256Z,48.70
2019-04-26T10:37:25.678Z,49.00
2019-04-26T10:39:59.031Z,49.50
2019-04-26T10:42:32.358Z,49.20
2019-04-26T10:45:14.509Z,48.40
2019-04-26T10:47:53.443Z,47.10
2019-04-26T10:50:28.722Z,47.60
2019-04-26T10:53:12.690Z,48.10
2019-04-26T10:55:46.577Z,49.00
2019-04-26T10:58:40.902Z,48.60
2019-04-26T11:01:17.097Z,48.90
2019-04-26T11:03:48.428Z,46.70
2019-04-26T11:06:24.155Z,46.20
2019-04-26T11:08:51.697Z,46.30
2019-04-26T11:11:21.383Z,46.60
2019-04-26T11:13:57.505Z,47.10
2019-04-26T11:16:26.539Z,47.00
2019-04-26T11:19:01.263Z,45.90
2019-04-26T11:21:33.227Z,46.00
2019-04-26T11:24:19.577Z,45.50
2019-04-26T11:26:59.455Z,44.80
2019-04-26T11:29:30.239Z,45.30
2019-04-26T11:32:09.390Z,44.80
2019-04-26T11:34:46.099Z,44.20
2019-04-26T11:37:17.911Z,43.10
2019-04-26T11:40:00.796Z,43.60
2019-04-26T11:42:41.915Z,43.80
2019-04-26T11:45:14.628Z,43.70
2019-04-26T11:47:55.400Z,43.40
2019-04-26T11:50:19.947Z,43.90
2019-04-26T11:52:56.623Z,44.50
2019-04-26T11:55:36.211Z,43.30
2019-04-26T11:58:22.509Z,43.70
2019-04-26T12:00:57.279Z,43.60
2019-04-26T12:06:29.161Z,44.20
2019-04-26T12:09:01.588Z,43.60
2019-04-26T12:12:21.084Z,43.80
2019-04-26T12:14:53.265Z,42.80
2019-04-26T12:17:58.642Z,39.90
2019-04-26T12:20:26.927Z,40.10
2019-04-26T12:23:34.695Z,40.20
2019-04-26T12:26:07.948Z,40.50
2019-04-26T12:29:25.843Z,41.40
2019-04-26T12:31:53.752Z,40.90
2019-04-26T12:35:19.841Z,40.20
2019-04-26T12:37:54.701Z,41.40
2019-04-26T12:41:12.992Z,43.00
2019-04-26T12:43:47.580Z,42.60
2019-04-26T12:46:34.522Z,41.90
2019-04-26T12:49:12.649Z,40.50
2019-04-26T12:52:28.610Z,40.80
2019-04-26T12:55:00.041Z,39.70
2019-04-26T12:58:01.380Z,39.30
2019-04-26T13:00:53.254Z,38.20
2019-04-26T13:04:10.436Z,38.50
2019-04-26T13:06:44.227Z,38.90
2019-04-26T13:10:06.977Z,39.40
2019-04-26T13:12:52.536Z,39.30
2019-04-26T13:15:59.893Z,39.20
2019-04-26T13:18:32.920Z,37.70
2019-04-26T13:21:59.672Z,36.80
2019-04-26T13:24:30.125Z,37.70
2019-04-26T13:27:41.586Z,38.40
2019-04-26T13:30:12.444Z,38.40
2019-04-26T13:33:27.542Z,38.40
2019-04-26T13:36:15.318Z,39.10
2019-04-26T13:39:23.457Z,37.90
2019-04-26T13:42:09.512Z,37.60
2019-04-26T13:48:02.035Z,37.70
2019-04-26T13:51:31.183Z,37.50
2019-04-26T13:54:06.682Z,37.20
2019-04-26T13:57:15.306Z,38.10
2019-04-26T13:59:47.453Z,38.60
2019-04-26T14:03:00.281Z,39.10
2019-04-26T14:05:37.202Z,38.70
2019-04-26T14:08:38.411Z,38.40
2019-04-26T14:11:07.676Z,38.50
2019-04-26T14:14:12.470Z,39.70
2019-04-26T14:16:42.506Z,39.30
2019-04-26T14:19:49.443Z,39.60
2019-04-26T14:22:22.257Z,39.40
2019-04-26T14:25:41.389Z,39.30
2019-04-26T14:28:10.333Z,39.10
2019-04-26T14:31:31.333Z,41.90
2019-04-26T14:34:05.453Z,42.20
2019-04-26T14:36:46.056Z,41.30
2019-04-26T14:39:21.090Z,40.10
2019-04-26T14:41:58.419Z,39.90
2019-04-26T14:44:27.159Z,39.60
2019-04-26T14:47:47.254Z,39.60
2019-04-26T14:50:16.388Z,39.00
2019-04-26T14:53:13.695Z,39.60
2019-04-26T14:55:51.244Z,39.30
2019-04-26T14:59:16.296Z,40.00
2019-04-26T15:02:02.679Z,40.00
2019-04-26T15:04:58.147Z,40.70
2019-04-26T15:07:28.255Z,40.60
2019-04-26T15:09:58.055Z,40.00
2019-04-26T15:13:17.276Z,39.50
2019-04-26T15:15:44.482Z,39.30
2019-04-26T15:18:52.535Z,39.00
2019-04-26T15:21:27.360Z,39.00
2019-04-26T15:27:46.333Z,39.00
2019-04-26T15:31:05.683Z,39.20
2019-04-26T15:33:36.661Z,38.80
2019-04-26T15:43:27.232Z,39.10
2019-04-26T15:46:13.347Z,38.00
2019-04-26T15:49:37.408Z,40.40
2019-04-26T15:52:09.366Z,41.40
2019-04-26T15:55:18.731Z,42.60
2019-04-26T15:57:56.113Z,43.20
2019-04-26T16:00:58.801Z,48.20
2019-04-26T16:03:30.687Z,45.30
2019-04-26T16:06:41.981Z,45.90
2019-04-26T16:09:19.718Z,45.40
2019-04-26T16:12:33.524Z,46.10
2019-04-26T16:15:06.605Z,47.10
2019-04-26T16:18:10.580Z,49.60
2019-04-26T16:20:45.275Z,48.90
2019-04-26T16:23:55.289Z,47.20
2019-04-26T16:26:33.188Z,46.30
2019-04-26T16:29:58.300Z,45.40
2019-04-26T16:32:34.547Z,42.20
2019-04-26T16:35:22.417Z,42.90
2019-04-26T16:37:51.998Z,42.80
2019-04-26T16:40:55.276Z,42.20
2019-04-26T16:45:04.422Z,43.50
2019-04-26T16:46:02.124Z,44.40
2019-04-26T16:49:12.413Z,44.20
2019-04-26T16:51:46.622Z,44.50
2019-04-26T16:55:20.325Z,44.90
2019-04-26T16:57:55.006Z,45.00
2019-04-26T17:01:10.087Z,44.20
2019-04-26T17:03:45.129Z,43.50
2019-04-26T17:07:25.318Z,43.10
2019-04-26T17:09:59.596Z,43.20
2019-04-26T17:12:56.217Z,42.80
2019-04-26T17:15:30.318Z,42.10
2019-04-26T17:18:27.067Z,42.10
2019-04-26T17:21:06.265Z,42.50
2019-04-26T17:24:49.940Z,43.10
2019-04-26T17:27:25.290Z,42.40
2019-04-26T17:30:42.552Z,41.30
2019-04-26T17:33:24.142Z,41.30
2019-04-26T17:37:17.091Z,41.20
2019-04-26T17:39:25.826Z,41.20
2019-04-26T17:42:44.974Z,41.00
2019-04-26T17:48:49.066Z,41.20
2019-04-26T17:54:54.111Z,41.80
2019-04-26T18:00:46.582Z,41.60
2019-04-26T18:03:27.858Z,41.30
2019-04-26T18:06:30.087Z,41.50
2019-04-26T18:09:18.586Z,41.80
2019-04-26T18:14:55.843Z,43.30
2019-04-26T18:18:26.043Z,44.50
2019-04-26T18:21:07.300Z,45.20
2019-04-26T18:24:23.486Z,44.70
2019-04-26T18:26:59.346Z,44.40
2019-04-26T18:30:20.514Z,45.60
2019-04-26T18:32:49.752Z,44.90
2019-04-26T18:36:06.517Z,45.00
2019-04-26T18:38:43.144Z,45.20
2019-04-26T18:42:02.874Z,45.40
2019-04-26T18:44:43.320Z,45.20
2019-04-26T18:53:58.143Z,45.80
2019-04-26T18:56:33.721Z,46.00
2019-04-26T18:59:28.064Z,45.10
2019-04-26T19:02:18.611Z,47.20
2019-04-26T19:08:45.882Z,46.30
2019-04-26T19:11:22.488Z,46.80
2019-04-26T19:17:11.851Z,47.00
2019-04-26T19:22:53.338Z,47.70
2019-04-26T19:28:29.308Z,48.30
2019-04-26T19:34:01.849Z,48.30
2019-04-26T19:36:36.782Z,48.20
2019-04-26T19:39:28.697Z,47.90
2019-04-26T19:44:49.460Z,47.60
2019-04-26T19:50:52.687Z,48.20
2019-04-26T19:56:35.718Z,48.60
2019-04-26T19:59:12.084Z,47.90
2019-04-26T20:01:48.617Z,47.60
2019-04-26T20:07:17.694Z,46.90
2019-04-26T20:12:52.748Z,47.30
2019-04-26T20:15:57.391Z,47.50
2019-04-26T20:18:32.751Z,47.20
2019-04-26T20:24:02.790Z,49.70
2019-04-26T20:27:27.815Z,49.80
2019-04-26T20:29:17.388Z,49.50
2019-04-26T20:34:56.138Z,49.20
2019-04-26T20:40:25.367Z,48.50
2019-04-26T20:45:50.616Z,48.40
2019-04-26T20:48:15.317Z,48.50
2019-04-26T20:51:11.016Z,50.20
2019-04-26T20:53:43.654Z,48.90
2019-04-26T20:56:18.691Z,49.40
2019-04-26T20:58:53.812Z,49.20
2019-04-26T21:01:27.834Z,49.30
2019-04-26T21:04:38.107Z,49.10
2019-04-26T21:07:14.209Z,49.30
2019-04-26T21:09:45.540Z,49.10
2019-04-26T21:12:24.625Z,49.10
2019-04-26T21:14:57.080Z,49.30
2019-04-26T21:20:15.316Z,48.10
2019-04-26T21:22:48.431Z,49.00
2019-04-26T21:25:27.656Z,48.80
2019-04-26T21:28:14.441Z,49.10
2019-04-26T21:31:26.226Z,51.20
2019-04-26T21:34:00.735Z,49.10
2019-04-26T21:37:11.421Z,49.90
2019-04-26T21:39:47.654Z,49.90
2019-04-26T21:42:20.845Z,50.10
2019-04-26T21:44:53.234Z,49.10
2019-04-26T21:47:27.598Z,50.00
2019-04-26T21:52:48.280Z,49.90
2019-04-26T21:58:24.949Z,50.00
2019-04-26T22:03:40.113Z,49.90
2019-04-26T22:06:20.003Z,49.90
2019-04-26T22:08:58.877Z,50.20
2019-04-26T22:11:31.224Z,50.40
2019-04-26T22:14:13.154Z,50.70
2019-04-26T22:19:44.230Z,51.60
2019-04-26T22:25:19.286Z,51.20
2019-04-26T22:27:54.016Z,51.40
2019-04-26T22:40:48.465Z,52.40
2019-04-26T22:43:28.649Z,52.60
2019-04-26T22:46:49.629Z,52.60
2019-04-26T22:49:25.141Z,52.70
2019-04-26T22:52:06.320Z,51.60
2019-04-26T22:54:44.690Z,52.50
2019-04-26T23:00:20.014Z,53.00
2019-04-26T23:09:33.446Z,53.70
2019-04-26T23:12:27.986Z,54.00
2019-04-26T23:18:16.041Z,54.30
2019-04-26T23:20:49.304Z,54.10
2019-04-26T23:23:26.284Z,54.40
2019-04-26T23:25:57.337Z,54.40
2019-04-26T23:28:34.368Z,54.60
2019-04-26T23:31:07.945Z,54.80
2019-04-26T23:33:38.484Z,54.60
2019-04-26T23:36:13.639Z,54.70
2019-04-26T23:38:53.142Z,54.80
2019-04-26T23:44:23.147Z,54.90
2019-04-26T23:46:54.974Z,55.30
2019-04-26T23:49:33.452Z,54.60
2019-04-26T23:52:07.908Z,55.90
2019-04-26T23:57:36.317Z,55.80
